Terminal Aerodrome Forecast
Issued by NWS Sterling, VA

Current Version | Previous Version | Text Only | Print | Product List | Glossary Off
Versions: 1 2 3 4 5 6 7 8 9 10 11 12 13 14 15 16 17 18 19 20 21 22 23 24 25 26

000
FTUS41 KLWX 301141
TAFIAD
TAF
KIAD 301141Z 3012/3118 20006KT P6SM BKN150
     FM301500 22008KT P6SM VCTS BKN060CB
      TEMPO 3019/3023 4SM -TSRA BKN050CB
     FM302300 VRB05KT P6SM SCT060
     FM310200 31006KT P6SM FEW250=

USA.gov is the U.S. government's official web portal to all federal, state and local government web resources and services.